sensor_id;sensor_type;location;lat;lon;timestamp;temperature;humidity
19803;DHT22;66074;50.764;6.090;2023-02-16T00:00:22;9.10;85.90
19803;DHT22;66074;50.764;6.090;2023-02-16T00:02:48;9.10;85.90
19803;DHT22;66074;50.764;6.090;2023-02-16T00:05:29;9.10;85.90
19803;DHT22;66074;50.764;6.090;2023-02-16T00:07:55;9.10;86.50
19803;DHT22;66074;50.764;6.090;2023-02-16T00:10:22;9.10;85.90
19803;DHT22;66074;50.764;6.090;2023-02-16T00:12:48;9.10;86.80
19803;DHT22;66074;50.764;6.090;2023-02-16T00:15:32;9.10;86.40
19803;DHT22;66074;50.764;6.090;2023-02-16T00:17:59;9.10;86.30
19803;DHT22;66074;50.764;6.090;2023-02-16T00:20:27;9.10;86.50
19803;DHT22;66074;50.764;6.090;2023-02-16T00:22:55;9.10;86.50
19803;DHT22;66074;50.764;6.090;2023-02-16T00:25:20;9.10;86.30
19803;DHT22;66074;50.764;6.090;2023-02-16T00:27:46;9.00;86.20
19803;DHT22;66074;50.764;6.090;2023-02-16T00:30:18;9.00;86.50
19803;DHT22;66074;50.764;6.090;2023-02-16T00:32:47;9.00;86.90
19803;DHT22;66074;50.764;6.090;2023-02-16T00:35:16;9.00;86.90
19803;DHT22;66074;50.764;6.090;2023-02-16T00:37:43;9.00;86.80
19803;DHT22;66074;50.764;6.090;2023-02-16T00:40:09;9.00;86.70
19803;DHT22;66074;50.764;6.090;2023-02-16T00:42:36;8.90;86.80
19803;DHT22;66074;50.764;6.090;2023-02-16T00:45:03;9.00;86.70
19803;DHT22;66074;50.764;6.090;2023-02-16T00:47:39;8.90;86.70
19803;DHT22;66074;50.764;6.090;2023-02-16T00:50:18;8.90;86.70
19803;DHT22;66074;50.764;6.090;2023-02-16T00:52:44;8.80;87.00
19803;DHT22;66074;50.764;6.090;2023-02-16T00:55:21;8.90;86.70
19803;DHT22;66074;50.764;6.090;2023-02-16T00:57:52;8.80;87.00
19803;DHT22;66074;50.764;6.090;2023-02-16T01:00:33;8.90;87.00
19803;DHT22;66074;50.764;6.090;2023-02-16T01:03:01;8.80;87.10
19803;DHT22;66074;50.764;6.090;2023-02-16T01:05:28;8.70;86.80
19803;DHT22;66074;50.764;6.090;2023-02-16T01:07:54;8.70;87.00
19803;DHT22;66074;50.764;6.090;2023-02-16T01:10:39;8.70;86.70
19803;DHT22;66074;50.764;6.090;2023-02-16T01:13:26;8.70;87.00
19803;DHT22;66074;50.764;6.090;2023-02-16T01:15:52;8.60;86.90
19803;DHT22;66074;50.764;6.090;2023-02-16T01:18:18;8.60;87.00
19803;DHT22;66074;50.764;6.090;2023-02-16T01:20:45;8.60;87.00
19803;DHT22;66074;50.764;6.090;2023-02-16T01:23:11;8.60;87.10
19803;DHT22;66074;50.764;6.090;2023-02-16T01:25:37;8.60;86.80
19803;DHT22;66074;50.764;6.090;2023-02-16T01:28:23;8.60;86.60
19803;DHT22;66074;50.764;6.090;2023-02-16T01:30:50;8.60;87.20
19803;DHT22;66074;50.764;6.090;2023-02-16T01:33:16;8.60;86.80
19803;DHT22;66074;50.764;6.090;2023-02-16T01:35:41;8.50;86.70
19803;DHT22;66074;50.764;6.090;2023-02-16T01:38:17;8.50;86.40
19803;DHT22;66074;50.764;6.090;2023-02-16T01:41:03;8.50;87.00
19803;DHT22;66074;50.764;6.090;2023-02-16T01:43:45;8.50;86.70
19803;DHT22;66074;50.764;6.090;2023-02-16T01:46:15;8.50;86.70
19803;DHT22;66074;50.764;6.090;2023-02-16T01:48:42;8.50;86.70
19803;DHT22;66074;50.764;6.090;2023-02-16T01:51:21;8.40;86.80
19803;DHT22;66074;50.764;6.090;2023-02-16T01:59:58;8.40;86.80
19803;DHT22;66074;50.764;6.090;2023-02-16T02:02:35;8.40;86.70
19803;DHT22;66074;50.764;6.090;2023-02-16T02:08:11;8.40;86.80
19803;DHT22;66074;50.764;6.090;2023-02-16T02:16:11;8.50;86.20
19803;DHT22;66074;50.764;6.090;2023-02-16T02:18:40;8.40;86.40
19803;DHT22;66074;50.764;6.090;2023-02-16T02:21:41;8.40;86.30
19803;DHT22;66074;50.764;6.090;2023-02-16T02:27:27;8.50;86.50
19803;DHT22;66074;50.764;6.090;2023-02-16T02:44:21;8.40;87.10
19803;DHT22;66074;50.764;6.090;2023-02-16T02:46:47;8.50;87.10
19803;DHT22;66074;50.764;6.090;2023-02-16T02:49:14;8.40;86.90
19803;DHT22;66074;50.764;6.090;2023-02-16T02:51:39;8.40;87.10
19803;DHT22;66074;50.764;6.090;2023-02-16T02:54:15;8.40;87.30
19803;DHT22;66074;50.764;6.090;2023-02-16T02:57:15;8.40;87.50
19803;DHT22;66074;50.764;6.090;2023-02-16T03:00:14;8.40;87.70
19803;DHT22;66074;50.764;6.090;2023-02-16T03:03:50;8.40;88.20
19803;DHT22;66074;50.764;6.090;2023-02-16T03:08:25;8.40;88.10
19803;DHT22;66074;50.764;6.090;2023-02-16T03:11:00;8.40;87.90
19803;DHT22;66074;50.764;6.090;2023-02-16T03:13:49;8.40;88.30
19803;DHT22;66074;50.764;6.090;2023-02-16T03:16:20;8.40;88.50
19803;DHT22;66074;50.764;6.090;2023-02-16T03:18:48;8.40;88.30
19803;DHT22;66074;50.764;6.090;2023-02-16T03:21:33;8.40;88.20
19803;DHT22;66074;50.764;6.090;2023-02-16T03:24:22;8.40;88.40
19803;DHT22;66074;50.764;6.090;2023-02-16T03:27:08;8.40;88.60
19803;DHT22;66074;50.764;6.090;2023-02-16T03:29:53;8.30;88.50
19803;DHT22;66074;50.764;6.090;2023-02-16T03:32:20;8.40;88.90
19803;DHT22;66074;50.764;6.090;2023-02-16T03:34:46;8.30;88.80
19803;DHT22;66074;50.764;6.090;2023-02-16T03:37:12;8.30;88.70
19803;DHT22;66074;50.764;6.090;2023-02-16T03:39:38;8.30;89.30
19803;DHT22;66074;50.764;6.090;2023-02-16T03:42:23;8.30;89.20
19803;DHT22;66074;50.764;6.090;2023-02-16T03:44:50;8.30;89.70
19803;DHT22;66074;50.764;6.090;2023-02-16T03:47:16;8.40;89.60
19803;DHT22;66074;50.764;6.090;2023-02-16T03:49:42;8.30;89.60
19803;DHT22;66074;50.764;6.090;2023-02-16T03:52:08;8.30;89.90
19803;DHT22;66074;50.764;6.090;2023-02-16T03:54:34;8.30;89.80
19803;DHT22;66074;50.764;6.090;2023-02-16T03:56:59;8.30;89.90
19803;DHT22;66074;50.764;6.090;2023-02-16T03:59:25;8.30;90.10
19803;DHT22;66074;50.764;6.090;2023-02-16T04:01:50;8.30;89.90
19803;DHT22;66074;50.764;6.090;2023-02-16T04:04:16;8.30;90.00
19803;DHT22;66074;50.764;6.090;2023-02-16T04:06:42;8.30;90.30
19803;DHT22;66074;50.764;6.090;2023-02-16T04:09:07;8.30;90.00
19803;DHT22;66074;50.764;6.090;2023-02-16T04:11:33;8.30;90.10
19803;DHT22;66074;50.764;6.090;2023-02-16T04:14:17;8.30;90.10
19803;DHT22;66074;50.764;6.090;2023-02-16T04:16:42;8.30;90.10
19803;DHT22;66074;50.764;6.090;2023-02-16T04:19:08;8.30;90.10
19803;DHT22;66074;50.764;6.090;2023-02-16T04:21:34;8.30;90.20
19803;DHT22;66074;50.764;6.090;2023-02-16T04:23:59;8.30;90.20
19803;DHT22;66074;50.764;6.090;2023-02-16T04:26:25;8.30;90.30
19803;DHT22;66074;50.764;6.090;2023-02-16T04:28:50;8.40;90.40
19803;DHT22;66074;50.764;6.090;2023-02-16T04:31:16;8.40;90.40
19803;DHT22;66074;50.764;6.090;2023-02-16T04:33:42;8.40;90.40
19803;DHT22;66074;50.764;6.090;2023-02-16T04:36:07;8.40;90.50
19803;DHT22;66074;50.764;6.090;2023-02-16T04:38:33;8.40;90.40
19803;DHT22;66074;50.764;6.090;2023-02-16T04:40:59;8.40;90.50
19803;DHT22;66074;50.764;6.090;2023-02-16T04:43:24;8.40;90.60
19803;DHT22;66074;50.764;6.090;2023-02-16T04:45:50;8.40;90.60
19803;DHT22;66074;50.764;6.090;2023-02-16T04:48:16;8.30;90.60
19803;DHT22;66074;50.764;6.090;2023-02-16T04:50:42;8.30;90.60
19803;DHT22;66074;50.764;6.090;2023-02-16T04:53:07;8.40;90.70
19803;DHT22;66074;50.764;6.090;2023-02-16T04:55:33;8.40;90.70
19803;DHT22;66074;50.764;6.090;2023-02-16T04:57:59;8.40;90.50
19803;DHT22;66074;50.764;6.090;2023-02-16T05:00:24;8.50;90.60
19803;DHT22;66074;50.764;6.090;2023-02-16T05:02:50;8.40;90.50
19803;DHT22;66074;50.764;6.090;2023-02-16T05:05:16;8.40;90.60
19803;DHT22;66074;50.764;6.090;2023-02-16T05:07:41;8.40;90.60
19803;DHT22;66074;50.764;6.090;2023-02-16T05:10:08;8.50;90.60
19803;DHT22;66074;50.764;6.090;2023-02-16T05:12:33;8.40;90.70
19803;DHT22;66074;50.764;6.090;2023-02-16T05:15:17;8.50;90.60
19803;DHT22;66074;50.764;6.090;2023-02-16T05:17:43;8.40;90.60
19803;DHT22;66074;50.764;6.090;2023-02-16T05:20:10;8.30;90.50
19803;DHT22;66074;50.764;6.090;2023-02-16T05:22:35;8.40;90.60
19803;DHT22;66074;50.764;6.090;2023-02-16T05:25:04;8.40;90.60
19803;DHT22;66074;50.764;6.090;2023-02-16T05:27:30;8.40;90.60
19803;DHT22;66074;50.764;6.090;2023-02-16T05:29:57;8.40;90.60
19803;DHT22;66074;50.764;6.090;2023-02-16T05:32:23;8.50;90.70
19803;DHT22;66074;50.764;6.090;2023-02-16T05:34:49;8.50;90.70
19803;DHT22;66074;50.764;6.090;2023-02-16T05:37:16;8.60;90.70
19803;DHT22;66074;50.764;6.090;2023-02-16T05:39:43;8.60;90.70
19803;DHT22;66074;50.764;6.090;2023-02-16T05:42:09;8.60;90.60
19803;DHT22;66074;50.764;6.090;2023-02-16T05:44:36;8.70;90.60
19803;DHT22;66074;50.764;6.090;2023-02-16T05:47:02;8.70;90.70
19803;DHT22;66074;50.764;6.090;2023-02-16T05:49:28;8.70;90.60
19803;DHT22;66074;50.764;6.090;2023-02-16T05:51:54;8.80;90.60
19803;DHT22;66074;50.764;6.090;2023-02-16T05:54:20;8.80;90.50
19803;DHT22;66074;50.764;6.090;2023-02-16T05:56:48;8.90;90.50
19803;DHT22;66074;50.764;6.090;2023-02-16T05:59:14;8.80;90.40
19803;DHT22;66074;50.764;6.090;2023-02-16T06:01:41;8.90;90.40
19803;DHT22;66074;50.764;6.090;2023-02-16T06:04:08;8.90;90.40
19803;DHT22;66074;50.764;6.090;2023-02-16T06:06:35;8.90;90.30
19803;DHT22;66074;50.764;6.090;2023-02-16T06:09:02;8.90;90.30
19803;DHT22;66074;50.764;6.090;2023-02-16T06:11:28;9.00;90.30
19803;DHT22;66074;50.764;6.090;2023-02-16T06:14:10;9.00;90.30
19803;DHT22;66074;50.764;6.090;2023-02-16T06:16:38;9.00;90.30
19803;DHT22;66074;50.764;6.090;2023-02-16T06:19:04;9.00;90.20
19803;DHT22;66074;50.764;6.090;2023-02-16T06:21:31;9.10;90.20
19803;DHT22;66074;50.764;6.090;2023-02-16T06:23:56;9.10;90.20
19803;DHT22;66074;50.764;6.090;2023-02-16T06:26:22;9.10;90.20
19803;DHT22;66074;50.764;6.090;2023-02-16T06:28:48;9.10;90.10
19803;DHT22;66074;50.764;6.090;2023-02-16T06:31:14;9.10;90.10
19803;DHT22;66074;50.764;6.090;2023-02-16T06:33:40;9.10;90.10
19803;DHT22;66074;50.764;6.090;2023-02-16T06:36:06;9.10;90.10
19803;DHT22;66074;50.764;6.090;2023-02-16T06:38:32;9.10;90.10
19803;DHT22;66074;50.764;6.090;2023-02-16T06:40:57;9.10;90.10
19803;DHT22;66074;50.764;6.090;2023-02-16T06:43:23;9.20;90.10
19803;DHT22;66074;50.764;6.090;2023-02-16T06:45:48;9.20;90.10
19803;DHT22;66074;50.764;6.090;2023-02-16T06:48:14;9.20;90.00
19803;DHT22;66074;50.764;6.090;2023-02-16T06:50:40;9.20;90.00
19803;DHT22;66074;50.764;6.090;2023-02-16T06:53:05;9.20;90.10
19803;DHT22;66074;50.764;6.090;2023-02-16T06:55:31;9.30;90.10
19803;DHT22;66074;50.764;6.090;2023-02-16T06:58:04;9.30;90.00
19803;DHT22;66074;50.764;6.090;2023-02-16T07:00:30;9.30;89.90
19803;DHT22;66074;50.764;6.090;2023-02-16T07:02:56;9.40;89.80
19803;DHT22;66074;50.764;6.090;2023-02-16T07:05:21;9.40;89.80
19803;DHT22;66074;50.764;6.090;2023-02-16T07:07:47;9.40;89.60
19803;DHT22;66074;50.764;6.090;2023-02-16T07:10:13;9.50;89.70
19803;DHT22;66074;50.764;6.090;2023-02-16T07:12:39;9.50;89.60
19803;DHT22;66074;50.764;6.090;2023-02-16T07:15:05;9.60;89.60
19803;DHT22;66074;50.764;6.090;2023-02-16T07:17:30;9.60;89.70
19803;DHT22;66074;50.764;6.090;2023-02-16T07:19:56;9.60;89.70
19803;DHT22;66074;50.764;6.090;2023-02-16T07:22:22;9.70;90.20
19803;DHT22;66074;50.764;6.090;2023-02-16T07:24:47;9.70;89.70
19803;DHT22;66074;50.764;6.090;2023-02-16T07:27:13;9.70;89.70
19803;DHT22;66074;50.764;6.090;2023-02-16T07:29:39;9.80;89.70
19803;DHT22;66074;50.764;6.090;2023-02-16T07:32:04;9.80;89.80
19803;DHT22;66074;50.764;6.090;2023-02-16T07:34:30;9.80;89.80
19803;DHT22;66074;50.764;6.090;2023-02-16T07:36:56;9.80;89.90
19803;DHT22;66074;50.764;6.090;2023-02-16T07:39:21;9.90;90.00
19803;DHT22;66074;50.764;6.090;2023-02-16T07:41:47;9.90;90.00
19803;DHT22;66074;50.764;6.090;2023-02-16T07:44:13;9.90;90.00
19803;DHT22;66074;50.764;6.090;2023-02-16T07:46:38;10.00;89.10
19803;DHT22;66074;50.764;6.090;2023-02-16T07:49:04;10.00;89.10
19803;DHT22;66074;50.764;6.090;2023-02-16T07:51:30;10.10;89.20
19803;DHT22;66074;50.764;6.090;2023-02-16T07:53:57;10.10;89.20
19803;DHT22;66074;50.764;6.090;2023-02-16T07:56:26;10.20;89.30
19803;DHT22;66074;50.764;6.090;2023-02-16T07:58:54;10.20;89.30
19803;DHT22;66074;50.764;6.090;2023-02-16T08:01:20;10.20;89.40
19803;DHT22;66074;50.764;6.090;2023-02-16T08:03:46;10.30;89.40
19803;DHT22;66074;50.764;6.090;2023-02-16T08:06:12;10.30;89.30
19803;DHT22;66074;50.764;6.090;2023-02-16T08:08:39;10.20;89.20
19803;DHT22;66074;50.764;6.090;2023-02-16T08:11:14;10.20;89.30
19803;DHT22;66074;50.764;6.090;2023-02-16T08:13:40;10.20;89.30
19803;DHT22;66074;50.764;6.090;2023-02-16T08:16:15;10.20;89.40
19803;DHT22;66074;50.764;6.090;2023-02-16T08:18:41;10.20;89.60
19803;DHT22;66074;50.764;6.090;2023-02-16T08:21:11;10.20;89.50
19803;DHT22;66074;50.764;6.090;2023-02-16T08:23:50;10.20;89.70
19803;DHT22;66074;50.764;6.090;2023-02-16T08:26:17;10.20;89.70
19803;DHT22;66074;50.764;6.090;2023-02-16T08:28:45;10.20;89.70
19803;DHT22;66074;50.764;6.090;2023-02-16T08:31:16;10.30;90.00
19803;DHT22;66074;50.764;6.090;2023-02-16T08:33:44;10.30;90.00
19803;DHT22;66074;50.764;6.090;2023-02-16T08:36:24;10.30;90.00
19803;DHT22;66074;50.764;6.090;2023-02-16T08:38:52;10.40;90.20
19803;DHT22;66074;50.764;6.090;2023-02-16T08:41:19;10.50;90.20
19803;DHT22;66074;50.764;6.090;2023-02-16T08:43:46;10.60;90.20
19803;DHT22;66074;50.764;6.090;2023-02-16T08:46:11;10.70;90.20
19803;DHT22;66074;50.764;6.090;2023-02-16T08:48:37;10.80;90.30
19803;DHT22;66074;50.764;6.090;2023-02-16T08:51:04;10.80;90.30
19803;DHT22;66074;50.764;6.090;2023-02-16T08:53:34;10.90;90.40
19803;DHT22;66074;50.764;6.090;2023-02-16T08:56:01;10.90;90.30
19803;DHT22;66074;50.764;6.090;2023-02-16T08:58:29;11.00;90.40
19803;DHT22;66074;50.764;6.090;2023-02-16T09:00:55;11.10;90.50
19803;DHT22;66074;50.764;6.090;2023-02-16T09:03:21;11.10;90.50
19803;DHT22;66074;50.764;6.090;2023-02-16T09:05:48;11.10;90.50
19803;DHT22;66074;50.764;6.090;2023-02-16T09:08:14;11.20;90.50
19803;DHT22;66074;50.764;6.090;2023-02-16T09:10:41;11.20;90.50
19803;DHT22;66074;50.764;6.090;2023-02-16T09:13:07;11.20;90.50
19803;DHT22;66074;50.764;6.090;2023-02-16T09:15:39;11.20;90.50
19803;DHT22;66074;50.764;6.090;2023-02-16T09:18:06;11.20;90.50
19803;DHT22;66074;50.764;6.090;2023-02-16T09:20:36;11.20;90.60
19803;DHT22;66074;50.764;6.090;2023-02-16T09:23:01;11.20;90.70
19803;DHT22;66074;50.764;6.090;2023-02-16T09:25:28;11.20;90.60
19803;DHT22;66074;50.764;6.090;2023-02-16T09:27:54;11.20;90.50
19803;DHT22;66074;50.764;6.090;2023-02-16T09:30:20;11.30;90.60
19803;DHT22;66074;50.764;6.090;2023-02-16T09:32:45;11.30;90.60
19803;DHT22;66074;50.764;6.090;2023-02-16T09:35:11;11.40;90.70
19803;DHT22;66074;50.764;6.090;2023-02-16T09:37:37;11.30;90.60
19803;DHT22;66074;50.764;6.090;2023-02-16T09:40:03;11.40;90.70
19803;DHT22;66074;50.764;6.090;2023-02-16T09:45:18;11.40;90.90
19803;DHT22;66074;50.764;6.090;2023-02-16T09:47:47;11.40;90.80
19803;DHT22;66074;50.764;6.090;2023-02-16T09:50:28;11.40;90.70
19803;DHT22;66074;50.764;6.090;2023-02-16T09:52:58;11.40;90.80
19803;DHT22;66074;50.764;6.090;2023-02-16T09:55:28;11.50;90.80
19803;DHT22;66074;50.764;6.090;2023-02-16T09:58:06;11.60;90.90
19803;DHT22;66074;50.764;6.090;2023-02-16T10:06:26;11.70;90.90
19803;DHT22;66074;50.764;6.090;2023-02-16T10:08:57;11.80;90.80
19803;DHT22;66074;50.764;6.090;2023-02-16T10:11:38;11.90;90.90
19803;DHT22;66074;50.764;6.090;2023-02-16T10:14:39;12.00;90.80
19803;DHT22;66074;50.764;6.090;2023-02-16T10:17:18;12.10;90.80
19803;DHT22;66074;50.764;6.090;2023-02-16T10:20:13;12.10;90.80
19803;DHT22;66074;50.764;6.090;2023-02-16T10:25:39;12.00;90.80
19803;DHT22;66074;50.764;6.090;2023-02-16T10:28:20;12.10;90.80
19803;DHT22;66074;50.764;6.090;2023-02-16T10:31:04;12.00;90.90
19803;DHT22;66074;50.764;6.090;2023-02-16T10:33:45;12.00;91.00
19803;DHT22;66074;50.764;6.090;2023-02-16T10:41:36;12.00;91.00
19803;DHT22;66074;50.764;6.090;2023-02-16T10:44:18;12.00;91.10
19803;DHT22;66074;50.764;6.090;2023-02-16T10:46:50;12.00;91.10
19803;DHT22;66074;50.764;6.090;2023-02-16T10:49:19;12.00;91.10
19803;DHT22;66074;50.764;6.090;2023-02-16T10:51:48;12.00;91.10
19803;DHT22;66074;50.764;6.090;2023-02-16T10:54:30;12.00;91.10
19803;DHT22;66074;50.764;6.090;2023-02-16T10:57:05;12.10;91.30
19803;DHT22;66074;50.764;6.090;2023-02-16T10:59:40;12.10;91.20
19803;DHT22;66074;50.764;6.090;2023-02-16T11:04:50;12.20;91.30
19803;DHT22;66074;50.764;6.090;2023-02-16T11:07:22;12.30;91.30
19803;DHT22;66074;50.764;6.090;2023-02-16T11:09:51;12.20;91.20
19803;DHT22;66074;50.764;6.090;2023-02-16T11:12:32;12.30;91.30
19803;DHT22;66074;50.764;6.090;2023-02-16T11:15:01;12.30;91.50
19803;DHT22;66074;50.764;6.090;2023-02-16T11:17:29;12.30;91.20
19803;DHT22;66074;50.764;6.090;2023-02-16T11:19:59;12.30;91.20
19803;DHT22;66074;50.764;6.090;2023-02-16T11:22:35;12.30;91.20
19803;DHT22;66074;50.764;6.090;2023-02-16T11:28:00;12.30;91.50
19803;DHT22;66074;50.764;6.090;2023-02-16T11:30:35;12.30;91.70
19803;DHT22;66074;50.764;6.090;2023-02-16T11:33:03;12.30;91.70
19803;DHT22;66074;50.764;6.090;2023-02-16T11:35:31;12.30;91.70
19803;DHT22;66074;50.764;6.090;2023-02-16T11:38:05;12.20;91.60
19803;DHT22;66074;50.764;6.090;2023-02-16T11:40:32;12.20;91.60
19803;DHT22;66074;50.764;6.090;2023-02-16T11:42:59;12.10;91.70
19803;DHT22;66074;50.764;6.090;2023-02-16T11:45:29;12.10;91.70
19803;DHT22;66074;50.764;6.090;2023-02-16T11:48:07;12.10;91.70
19803;DHT22;66074;50.764;6.090;2023-02-16T11:50:39;12.10;91.80
19803;DHT22;66074;50.764;6.090;2023-02-16T11:55:35;12.00;91.80
19803;DHT22;66074;50.764;6.090;2023-02-16T12:09:38;12.30;92.40
19803;DHT22;66074;50.764;6.090;2023-02-16T12:12:13;12.30;92.60
19803;DHT22;66074;50.764;6.090;2023-02-16T12:20:36;12.30;93.10
19803;DHT22;66074;50.764;6.090;2023-02-16T12:23:19;12.40;93.10
19803;DHT22;66074;50.764;6.090;2023-02-16T12:27:00;12.50;93.00
19803;DHT22;66074;50.764;6.090;2023-02-16T12:29:05;12.60;93.00
19803;DHT22;66074;50.764;6.090;2023-02-16T12:32:02;12.70;93.10
19803;DHT22;66074;50.764;6.090;2023-02-16T12:37:39;12.60;92.90
19803;DHT22;66074;50.764;6.090;2023-02-16T12:43:01;12.70;92.80
19803;DHT22;66074;50.764;6.090;2023-02-16T12:45:35;12.70;92.90
19803;DHT22;66074;50.764;6.090;2023-02-16T12:48:34;12.80;92.80
19803;DHT22;66074;50.764;6.090;2023-02-16T12:51:17;12.80;92.90
19803;DHT22;66074;50.764;6.090;2023-02-16T12:53:55;13.00;92.90
19803;DHT22;66074;50.764;6.090;2023-02-16T12:56:30;13.00;92.90
19803;DHT22;66074;50.764;6.090;2023-02-16T12:59:18;13.10;92.90
19803;DHT22;66074;50.764;6.090;2023-02-16T13:01:48;13.20;92.80
19803;DHT22;66074;50.764;6.090;2023-02-16T13:04:37;13.10;92.70
19803;DHT22;66074;50.764;6.090;2023-02-16T13:09:52;13.20;92.80
19803;DHT22;66074;50.764;6.090;2023-02-16T13:12:49;13.20;92.50
19803;DHT22;66074;50.764;6.090;2023-02-16T13:17:47;13.20;92.30
19803;DHT22;66074;50.764;6.090;2023-02-16T13:20:19;13.30;92.30
19803;DHT22;66074;50.764;6.090;2023-02-16T13:25:41;13.40;92.00
19803;DHT22;66074;50.764;6.090;2023-02-16T13:28:39;13.40;91.80
19803;DHT22;66074;50.764;6.090;2023-02-16T13:34:32;13.60;91.50
19803;DHT22;66074;50.764;6.090;2023-02-16T13:45:12;13.80;91.00
19803;DHT22;66074;50.764;6.090;2023-02-16T13:47:40;13.80;90.80
19803;DHT22;66074;50.764;6.090;2023-02-16T13:50:28;13.90;91.10
19803;DHT22;66074;50.764;6.090;2023-02-16T13:52:56;14.00;90.30
19803;DHT22;66074;50.764;6.090;2023-02-16T13:55:31;13.80;90.60
19803;DHT22;66074;50.764;6.090;2023-02-16T13:58:26;14.10;90.20
19803;DHT22;66074;50.764;6.090;2023-02-16T14:00:53;14.80;89.50
19803;DHT22;66074;50.764;6.090;2023-02-16T14:05:51;14.80;90.10
19803;DHT22;66074;50.764;6.090;2023-02-16T14:08:22;15.00;88.10
19803;DHT22;66074;50.764;6.090;2023-02-16T14:13:47;14.90;88.60
19803;DHT22;66074;50.764;6.090;2023-02-16T14:18:52;15.00;87.80
19803;DHT22;66074;50.764;6.090;2023-02-16T14:24:01;15.40;86.40
19803;DHT22;66074;50.764;6.090;2023-02-16T14:26:29;15.60;88.20
19803;DHT22;66074;50.764;6.090;2023-02-16T14:29:09;15.50;87.80
19803;DHT22;66074;50.764;6.090;2023-02-16T14:31:49;15.60;87.20
19803;DHT22;66074;50.764;6.090;2023-02-16T14:34:55;15.80;86.20
19803;DHT22;66074;50.764;6.090;2023-02-16T14:39:46;15.70;86.60
19803;DHT22;66074;50.764;6.090;2023-02-16T14:42:21;15.50;86.50
19803;DHT22;66074;50.764;6.090;2023-02-16T14:57:06;14.70;85.50
19803;DHT22;66074;50.764;6.090;2023-02-16T15:00:09;14.60;87.20
19803;DHT22;66074;50.764;6.090;2023-02-16T15:02:41;14.50;86.60
19803;DHT22;66074;50.764;6.090;2023-02-16T15:05:23;14.50;87.60
19803;DHT22;66074;50.764;6.090;2023-02-16T15:08:01;14.50;87.70
19803;DHT22;66074;50.764;6.090;2023-02-16T15:10:28;14.30;87.70
19803;DHT22;66074;50.764;6.090;2023-02-16T15:12:57;14.30;88.00
19803;DHT22;66074;50.764;6.090;2023-02-16T15:15:43;14.20;87.90
19803;DHT22;66074;50.764;6.090;2023-02-16T15:18:21;14.20;87.80
19803;DHT22;66074;50.764;6.090;2023-02-16T15:20:50;14.10;88.10
19803;DHT22;66074;50.764;6.090;2023-02-16T15:23:31;14.00;88.40
19803;DHT22;66074;50.764;6.090;2023-02-16T15:28:29;13.80;88.80
19803;DHT22;66074;50.764;6.090;2023-02-16T15:31:01;13.70;88.80
19803;DHT22;66074;50.764;6.090;2023-02-16T15:33:39;13.70;89.00
19803;DHT22;66074;50.764;6.090;2023-02-16T15:36:11;13.70;89.20
19803;DHT22;66074;50.764;6.090;2023-02-16T15:38:40;13.70;89.20
19803;DHT22;66074;50.764;6.090;2023-02-16T15:41:13;13.60;89.20
19803;DHT22;66074;50.764;6.090;2023-02-16T15:46:24;13.50;89.30
19803;DHT22;66074;50.764;6.090;2023-02-16T15:48:51;13.40;90.00
19803;DHT22;66074;50.764;6.090;2023-02-16T15:51:21;13.40;90.00
19803;DHT22;66074;50.764;6.090;2023-02-16T15:54:22;13.30;89.50
19803;DHT22;66074;50.764;6.090;2023-02-16T15:56:47;13.30;90.00
19803;DHT22;66074;50.764;6.090;2023-02-16T15:59:33;13.30;89.80
19803;DHT22;66074;50.764;6.090;2023-02-16T16:02:16;13.20;89.90
19803;DHT22;66074;50.764;6.090;2023-02-16T16:04:48;13.30;90.10
19803;DHT22;66074;50.764;6.090;2023-02-16T16:07:28;13.30;90.00
19803;DHT22;66074;50.764;6.090;2023-02-16T16:09:57;13.30;90.40
19803;DHT22;66074;50.764;6.090;2023-02-16T16:12:24;13.30;90.20
19803;DHT22;66074;50.764;6.090;2023-02-16T16:14:53;13.20;90.20
19803;DHT22;66074;50.764;6.090;2023-02-16T16:17:31;13.20;90.20
19803;DHT22;66074;50.764;6.090;2023-02-16T16:22:55;13.10;90.70
19803;DHT22;66074;50.764;6.090;2023-02-16T16:28:03;13.10;90.80
19803;DHT22;66074;50.764;6.090;2023-02-16T16:30:32;13.00;90.60
19803;DHT22;66074;50.764;6.090;2023-02-16T16:33:07;13.00;90.80
19803;DHT22;66074;50.764;6.090;2023-02-16T16:35:47;12.90;91.10
19803;DHT22;66074;50.764;6.090;2023-02-16T16:38:28;12.90;91.10
19803;DHT22;66074;50.764;6.090;2023-02-16T16:40:59;12.90;91.00
19803;DHT22;66074;50.764;6.090;2023-02-16T16:43:37;12.90;91.20
19803;DHT22;66074;50.764;6.090;2023-02-16T16:46:25;12.80;91.40
19803;DHT22;66074;50.764;6.090;2023-02-16T16:48:56;12.80;91.60
19803;DHT22;66074;50.764;6.090;2023-02-16T16:53:56;12.70;91.30
19803;DHT22;66074;50.764;6.090;2023-02-16T16:56:25;12.70;91.40
19803;DHT22;66074;50.764;6.090;2023-02-16T16:58:52;12.70;91.20
19803;DHT22;66074;50.764;6.090;2023-02-16T17:01:19;12.70;91.30
19803;DHT22;66074;50.764;6.090;2023-02-16T17:03:45;12.70;91.40
19803;DHT22;66074;50.764;6.090;2023-02-16T17:06:11;12.70;91.30
19803;DHT22;66074;50.764;6.090;2023-02-16T17:08:39;12.70;91.20
19803;DHT22;66074;50.764;6.090;2023-02-16T17:11:06;12.70;91.40
19803;DHT22;66074;50.764;6.090;2023-02-16T17:13:34;12.70;91.40
19803;DHT22;66074;50.764;6.090;2023-02-16T17:16:11;12.70;91.40
19803;DHT22;66074;50.764;6.090;2023-02-16T17:18:38;12.70;91.60
19803;DHT22;66074;50.764;6.090;2023-02-16T17:21:04;12.70;91.40
19803;DHT22;66074;50.764;6.090;2023-02-16T17:23:29;12.70;91.40
19803;DHT22;66074;50.764;6.090;2023-02-16T17:25:55;12.70;91.40
19803;DHT22;66074;50.764;6.090;2023-02-16T17:28:21;12.70;91.40
19803;DHT22;66074;50.764;6.090;2023-02-16T17:30:47;12.60;91.00
19803;DHT22;66074;50.764;6.090;2023-02-16T17:33:13;12.60;90.70
19803;DHT22;66074;50.764;6.090;2023-02-16T17:35:40;12.60;90.80
19803;DHT22;66074;50.764;6.090;2023-02-16T17:38:16;12.60;91.00
19803;DHT22;66074;50.764;6.090;2023-02-16T17:40:46;12.60;91.00
19803;DHT22;66074;50.764;6.090;2023-02-16T17:43:13;12.60;90.90
19803;DHT22;66074;50.764;6.090;2023-02-16T17:45:39;12.50;90.80
19803;DHT22;66074;50.764;6.090;2023-02-16T17:48:06;12.50;90.90
19803;DHT22;66074;50.764;6.090;2023-02-16T17:50:32;12.50;91.00
19803;DHT22;66074;50.764;6.090;2023-02-16T17:52:58;12.50;91.10
19803;DHT22;66074;50.764;6.090;2023-02-16T17:55:24;12.40;91.20
19803;DHT22;66074;50.764;6.090;2023-02-16T17:57:50;12.40;91.20
19803;DHT22;66074;50.764;6.090;2023-02-16T18:00:18;12.30;91.10
19803;DHT22;66074;50.764;6.090;2023-02-16T18:02:45;12.30;91.10
19803;DHT22;66074;50.764;6.090;2023-02-16T18:05:10;12.30;90.90
19803;DHT22;66074;50.764;6.090;2023-02-16T18:07:36;12.30;90.80
19803;DHT22;66074;50.764;6.090;2023-02-16T18:10:03;12.30;90.70
19803;DHT22;66074;50.764;6.090;2023-02-16T18:12:29;12.30;90.70
19803;DHT22;66074;50.764;6.090;2023-02-16T18:14:54;12.20;90.50
19803;DHT22;66074;50.764;6.090;2023-02-16T18:17:20;12.20;90.50
19803;DHT22;66074;50.764;6.090;2023-02-16T18:19:46;12.10;90.40
19803;DHT22;66074;50.764;6.090;2023-02-16T18:22:11;12.10;90.40